sensor_id;sensor_type;location;lat;lon;timestamp;pressure;altitude;pressure_sealevel;temperature;humidity
46408;BME280;32110;45.724;21.276;2022-07-06T00:03:06;100460.44;;;20.90;nan
46408;BME280;32110;45.724;21.276;2022-07-06T00:05:32;100465.47;;;20.92;nan
46408;BME280;32110;45.724;21.276;2022-07-06T00:10:22;100394.81;;;20.93;nan
46408;BME280;32110;45.724;21.276;2022-07-06T00:12:48;100444.56;;;20.94;nan
46408;BME280;32110;45.724;21.276;2022-07-06T00:15:13;100431.78;;;20.91;nan
46408;BME280;32110;45.724;21.276;2022-07-06T00:17:39;100461.72;;;20.93;nan
46408;BME280;32110;45.724;21.276;2022-07-06T00:20:05;100412.03;;;20.87;nan
46408;BME280;32110;45.724;21.276;2022-07-06T00:22:30;100446.53;;;20.88;nan
46408;BME280;32110;45.724;21.276;2022-07-06T00:24:56;100484.81;;;20.89;nan
46408;BME280;32110;45.724;21.276;2022-07-06T00:29:46;100447.91;;;20.86;nan
46408;BME280;32110;45.724;21.276;2022-07-06T00:32:12;100461.00;;;20.87;nan
46408;BME280;32110;45.724;21.276;2022-07-06T00:34:38;100443.94;;;20.83;nan
46408;BME280;32110;45.724;21.276;2022-07-06T00:37:06;100465.84;;;20.85;nan
46408;BME280;32110;45.724;21.276;2022-07-06T00:39:33;100458.81;;;20.89;nan
46408;BME280;32110;45.724;21.276;2022-07-06T00:41:58;100443.03;;;20.88;nan
46408;BME280;32110;45.724;21.276;2022-07-06T00:44:24;100459.63;;;20.90;nan
46408;BME280;32110;45.724;21.276;2022-07-06T00:46:49;100456.66;;;20.91;nan
46408;BME280;32110;45.724;21.276;2022-07-06T00:49:15;100460.44;;;20.90;nan
46408;BME280;32110;45.724;21.276;2022-07-06T00:51:59;100454.84;;;20.87;nan
46408;BME280;32110;45.724;21.276;2022-07-06T00:54:26;100447.09;;;20.85;nan
46408;BME280;32110;45.724;21.276;2022-07-06T00:56:52;100426.28;;;20.82;nan
46408;BME280;32110;45.724;21.276;2022-07-06T00:59:18;100455.13;;;20.85;nan
46408;BME280;32110;45.724;21.276;2022-07-06T01:01:43;100453.56;;;20.84;nan
46408;BME280;32110;45.724;21.276;2022-07-06T01:04:09;100438.66;;;20.78;nan
46408;BME280;32110;45.724;21.276;2022-07-06T01:06:34;100492.50;;;20.76;nan
46408;BME280;32110;45.724;21.276;2022-07-06T01:09:00;100423.88;;;20.80;nan
46408;BME280;32110;45.724;21.276;2022-07-06T01:11:26;100417.84;;;20.75;nan
46408;BME280;32110;45.724;21.276;2022-07-06T01:13:51;100466.50;;;20.77;nan
46408;BME280;32110;45.724;21.276;2022-07-06T01:16:17;100418.94;;;20.74;nan
46408;BME280;32110;45.724;21.276;2022-07-06T01:18:43;100424.28;;;20.74;nan
46408;BME280;32110;45.724;21.276;2022-07-06T01:21:13;100425.34;;;20.73;nan
46408;BME280;32110;45.724;21.276;2022-07-06T01:23:43;100423.00;;;20.71;nan
46408;BME280;32110;45.724;21.276;2022-07-06T01:26:16;100460.44;;;20.71;nan
46408;BME280;32110;45.724;21.276;2022-07-06T01:28:44;100421.19;;;20.67;nan
46408;BME280;32110;45.724;21.276;2022-07-06T01:31:24;100430.28;;;20.66;nan
46408;BME280;32110;45.724;21.276;2022-07-06T01:33:52;100381.94;;;20.62;nan
46408;BME280;32110;45.724;21.276;2022-07-06T01:36:19;100405.22;;;20.62;nan
46408;BME280;32110;45.724;21.276;2022-07-06T01:38:49;100407.50;;;20.68;nan
46408;BME280;32110;45.724;21.276;2022-07-06T01:41:16;100390.31;;;20.55;nan
46408;BME280;32110;45.724;21.276;2022-07-06T01:43:42;100408.38;;;20.64;nan
46408;BME280;32110;45.724;21.276;2022-07-06T01:46:08;100413.25;;;20.62;nan
46408;BME280;32110;45.724;21.276;2022-07-06T01:48:33;100392.13;;;20.60;nan
46408;BME280;32110;45.724;21.276;2022-07-06T01:50:59;100394.50;;;20.43;nan
46408;BME280;32110;45.724;21.276;2022-07-06T01:53:24;100444.34;;;20.57;nan
46408;BME280;32110;45.724;21.276;2022-07-06T01:55:49;100386.09;;;20.49;nan
46408;BME280;32110;45.724;21.276;2022-07-06T01:58:15;100404.38;;;20.42;nan
46408;BME280;32110;45.724;21.276;2022-07-06T02:00:40;100408.59;;;20.48;nan
46408;BME280;32110;45.724;21.276;2022-07-06T02:03:06;100394.78;;;20.41;nan
46408;BME280;32110;45.724;21.276;2022-07-06T02:05:31;100399.28;;;20.46;nan
46408;BME280;32110;45.724;21.276;2022-07-06T02:07:57;100393.22;;;20.40;nan
46408;BME280;32110;45.724;21.276;2022-07-06T02:10:22;100374.00;;;20.52;nan
46408;BME280;32110;45.724;21.276;2022-07-06T02:12:47;100398.41;;;20.50;nan
46408;BME280;32110;45.724;21.276;2022-07-06T02:15:13;100407.81;;;20.48;nan
46408;BME280;32110;45.724;21.276;2022-07-06T02:17:39;100435.19;;;20.39;nan
46408;BME280;32110;45.724;21.276;2022-07-06T02:20:05;100398.75;;;20.44;nan
46408;BME280;32110;45.724;21.276;2022-07-06T02:22:31;100390.81;;;20.38;nan
46408;BME280;32110;45.724;21.276;2022-07-06T02:24:56;100386.53;;;20.37;nan
46408;BME280;32110;45.724;21.276;2022-07-06T02:27:22;100422.13;;;20.38;nan
46408;BME280;32110;45.724;21.276;2022-07-06T02:29:47;100411.00;;;20.31;nan
46408;BME280;32110;45.724;21.276;2022-07-06T02:32:13;100427.03;;;20.31;nan
46408;BME280;32110;45.724;21.276;2022-07-06T02:37:03;100378.47;;;20.24;nan
46408;BME280;32110;45.724;21.276;2022-07-06T02:39:29;100380.91;;;20.20;nan
46408;BME280;32110;45.724;21.276;2022-07-06T02:41:54;100407.56;;;20.25;nan
46408;BME280;32110;45.724;21.276;2022-07-06T02:44:20;100404.69;;;20.22;nan
46408;BME280;32110;45.724;21.276;2022-07-06T02:46:45;100415.97;;;20.18;nan
46408;BME280;32110;45.724;21.276;2022-07-06T02:51:36;100397.81;;;20.15;nan
46408;BME280;32110;45.724;21.276;2022-07-06T02:56:27;100393.00;;;20.17;nan
46408;BME280;32110;45.724;21.276;2022-07-06T02:58:53;100403.59;;;20.23;nan
46408;BME280;32110;45.724;21.276;2022-07-06T03:01:19;100444.38;;;20.14;nan
46408;BME280;32110;45.724;21.276;2022-07-06T03:03:44;100410.63;;;20.18;nan
46408;BME280;32110;45.724;21.276;2022-07-06T03:06:10;100458.44;;;20.20;nan
46408;BME280;32110;45.724;21.276;2022-07-06T03:08:35;100415.09;;;20.23;nan
46408;BME280;32110;45.724;21.276;2022-07-06T03:13:27;100421.03;;;20.20;nan
46408;BME280;32110;45.724;21.276;2022-07-06T03:15:52;100425.78;;;20.23;nan
46408;BME280;32110;45.724;21.276;2022-07-06T03:18:17;100413.22;;;20.24;nan
46408;BME280;32110;45.724;21.276;2022-07-06T03:20:43;100404.13;;;20.25;nan
46408;BME280;32110;45.724;21.276;2022-07-06T03:23:08;100398.84;;;20.19;nan
46408;BME280;32110;45.724;21.276;2022-07-06T03:25:34;100413.75;;;20.26;nan
46408;BME280;32110;45.724;21.276;2022-07-06T03:27:59;100379.25;;;20.24;nan
46408;BME280;32110;45.724;21.276;2022-07-06T03:30:24;100455.19;;;20.23;nan
46408;BME280;32110;45.724;21.276;2022-07-06T03:32:50;100417.75;;;20.23;nan
46408;BME280;32110;45.724;21.276;2022-07-06T03:35:15;100405.50;;;20.22;nan
46408;BME280;32110;45.724;21.276;2022-07-06T03:37:41;100387.38;;;20.19;nan
46408;BME280;32110;45.724;21.276;2022-07-06T03:40:07;100399.13;;;20.18;nan
46408;BME280;32110;45.724;21.276;2022-07-06T03:42:32;100555.06;;;20.13;nan
46408;BME280;32110;45.724;21.276;2022-07-06T03:44:58;100413.00;;;20.20;nan
46408;BME280;32110;45.724;21.276;2022-07-06T03:47:23;100409.03;;;20.17;nan
46408;BME280;32110;45.724;21.276;2022-07-06T03:49:48;100430.66;;;20.21;nan
46408;BME280;32110;45.724;21.276;2022-07-06T03:52:17;100434.38;;;20.20;nan
46408;BME280;32110;45.724;21.276;2022-07-06T03:54:42;100422.84;;;20.25;nan
46408;BME280;32110;45.724;21.276;2022-07-06T03:57:08;100480.63;;;20.21;nan
46408;BME280;32110;45.724;21.276;2022-07-06T03:59:33;100430.34;;;20.23;nan
46408;BME280;32110;45.724;21.276;2022-07-06T04:04:24;100416.25;;;20.17;nan
46408;BME280;32110;45.724;21.276;2022-07-06T04:06:49;100417.06;;;20.17;nan
46408;BME280;32110;45.724;21.276;2022-07-06T04:09:15;100436.88;;;20.16;nan
46408;BME280;32110;45.724;21.276;2022-07-06T04:11:40;100418.22;;;20.11;nan
46408;BME280;32110;45.724;21.276;2022-07-06T04:14:06;100411.50;;;20.14;nan
46408;BME280;32110;45.724;21.276;2022-07-06T04:16:31;100410.63;;;20.18;nan
46408;BME280;32110;45.724;21.276;2022-07-06T04:18:56;100417.56;;;20.19;nan
46408;BME280;32110;45.724;21.276;2022-07-06T04:23:47;100411.13;;;20.21;nan
46408;BME280;32110;45.724;21.276;2022-07-06T04:26:12;100522.41;;;20.16;nan
46408;BME280;32110;45.724;21.276;2022-07-06T04:28:38;100404.78;;;20.16;nan
46408;BME280;32110;45.724;21.276;2022-07-06T04:31:03;100378.13;;;20.11;nan
46408;BME280;32110;45.724;21.276;2022-07-06T04:33:29;100414.38;;;20.17;nan
46408;BME280;32110;45.724;21.276;2022-07-06T04:35:54;100406.59;;;20.21;nan
46408;BME280;32110;45.724;21.276;2022-07-06T04:38:20;100380.56;;;20.27;nan
46408;BME280;32110;45.724;21.276;2022-07-06T04:40:45;100393.66;;;20.28;nan
46408;BME280;32110;45.724;21.276;2022-07-06T04:43:13;100385.75;;;20.18;nan
46408;BME280;32110;45.724;21.276;2022-07-06T04:45:39;100402.97;;;20.31;nan
46408;BME280;32110;45.724;21.276;2022-07-06T04:48:05;100414.75;;;20.30;nan
46408;BME280;32110;45.724;21.276;2022-07-06T04:50:31;100389.16;;;20.24;nan
46408;BME280;32110;45.724;21.276;2022-07-06T04:52:58;100396.75;;;20.35;nan
46408;BME280;32110;45.724;21.276;2022-07-06T04:55:23;100436.22;;;20.44;nan
46408;BME280;32110;45.724;21.276;2022-07-06T04:57:49;100413.72;;;20.45;nan
46408;BME280;32110;45.724;21.276;2022-07-06T05:00:17;100417.75;;;20.42;nan
46408;BME280;32110;45.724;21.276;2022-07-06T05:02:42;100424.72;;;20.43;nan
46408;BME280;32110;45.724;21.276;2022-07-06T05:05:08;100472.88;;;20.43;nan
46408;BME280;32110;45.724;21.276;2022-07-06T05:07:35;100427.97;;;20.40;nan
46408;BME280;32110;45.724;21.276;2022-07-06T05:10:08;100425.31;;;20.40;nan
46408;BME280;32110;45.724;21.276;2022-07-06T05:12:34;100418.00;;;20.46;nan
46408;BME280;32110;45.724;21.276;2022-07-06T05:14:59;100423.25;;;20.51;nan
46408;BME280;32110;45.724;21.276;2022-07-06T05:17:25;100418.69;;;20.51;nan
46408;BME280;32110;45.724;21.276;2022-07-06T05:19:50;100420.59;;;20.51;nan
46408;BME280;32110;45.724;21.276;2022-07-06T05:22:16;100420.00;;;20.54;nan
46408;BME280;32110;45.724;21.276;2022-07-06T05:24:41;100433.56;;;20.63;nan
46408;BME280;32110;45.724;21.276;2022-07-06T05:27:06;100437.31;;;20.62;nan
46408;BME280;32110;45.724;21.276;2022-07-06T05:29:32;100403.00;;;20.45;nan
46408;BME280;32110;45.724;21.276;2022-07-06T05:34:23;100401.34;;;20.49;nan
46408;BME280;32110;45.724;21.276;2022-07-06T05:36:48;100439.78;;;20.58;nan
46408;BME280;32110;45.724;21.276;2022-07-06T05:39:13;100434.13;;;20.59;nan
46408;BME280;32110;45.724;21.276;2022-07-06T05:41:44;100451.13;;;20.69;nan
46408;BME280;32110;45.724;21.276;2022-07-06T05:44:10;100408.78;;;20.71;nan
46408;BME280;32110;45.724;21.276;2022-07-06T05:46:35;100415.03;;;20.66;nan
46408;BME280;32110;45.724;21.276;2022-07-06T05:49:01;100455.38;;;20.70;nan
46408;BME280;32110;45.724;21.276;2022-07-06T05:51:45;100455.75;;;20.63;nan
46408;BME280;32110;45.724;21.276;2022-07-06T05:54:10;100449.19;;;20.55;nan
46408;BME280;32110;45.724;21.276;2022-07-06T05:56:36;100456.66;;;20.53;nan
46408;BME280;32110;45.724;21.276;2022-07-06T05:59:01;100451.78;;;20.60;nan
46408;BME280;32110;45.724;21.276;2022-07-06T06:01:27;100514.97;;;20.56;nan
46408;BME280;32110;45.724;21.276;2022-07-06T06:03:52;100436.91;;;20.49;nan
46408;BME280;32110;45.724;21.276;2022-07-06T06:11:08;100376.06;;;20.60;nan
46408;BME280;32110;45.724;21.276;2022-07-06T06:13:34;100446.94;;;20.63;nan
46408;BME280;32110;45.724;21.276;2022-07-06T06:18:24;100436.22;;;20.63;nan
46408;BME280;32110;45.724;21.276;2022-07-06T06:20:50;100402.22;;;20.63;nan
46408;BME280;32110;45.724;21.276;2022-07-06T06:23:15;100445.47;;;20.70;nan
46408;BME280;32110;45.724;21.276;2022-07-06T06:25:41;100438.22;;;20.71;nan
46408;BME280;32110;45.724;21.276;2022-07-06T06:28:08;100443.81;;;20.74;nan
46408;BME280;32110;45.724;21.276;2022-07-06T06:33:13;100399.09;;;20.75;nan
46408;BME280;32110;45.724;21.276;2022-07-06T06:35:45;100436.19;;;20.81;nan
46408;BME280;32110;45.724;21.276;2022-07-06T06:38:11;100423.31;;;20.84;nan
46408;BME280;32110;45.724;21.276;2022-07-06T06:40:37;100435.00;;;20.88;nan
46408;BME280;32110;45.724;21.276;2022-07-06T06:43:02;100483.59;;;20.81;nan
46408;BME280;32110;45.724;21.276;2022-07-06T06:45:28;100428.09;;;20.87;nan
46408;BME280;32110;45.724;21.276;2022-07-06T06:47:54;100429.97;;;20.86;nan
46408;BME280;32110;45.724;21.276;2022-07-06T06:50:19;100418.16;;;20.87;nan
46408;BME280;32110;45.724;21.276;2022-07-06T06:55:10;100433.72;;;20.85;nan
46408;BME280;32110;45.724;21.276;2022-07-06T07:00:02;100447.25;;;20.94;nan
46408;BME280;32110;45.724;21.276;2022-07-06T07:02:27;100422.97;;;20.90;nan
46408;BME280;32110;45.724;21.276;2022-07-06T07:04:53;100407.19;;;20.89;nan
46408;BME280;32110;45.724;21.276;2022-07-06T07:07:19;100446.03;;;20.86;nan
46408;BME280;32110;45.724;21.276;2022-07-06T07:09:44;100424.47;;;20.77;nan
46408;BME280;32110;45.724;21.276;2022-07-06T07:12:10;100460.78;;;20.84;nan
46408;BME280;32110;45.724;21.276;2022-07-06T07:17:02;100456.00;;;20.80;nan
46408;BME280;32110;45.724;21.276;2022-07-06T07:19:28;100454.66;;;20.83;nan
46408;BME280;32110;45.724;21.276;2022-07-06T07:21:53;100408.16;;;20.79;nan
46408;BME280;32110;45.724;21.276;2022-07-06T07:26:44;100449.94;;;20.75;nan
46408;BME280;32110;45.724;21.276;2022-07-06T07:29:09;100490.09;;;20.75;nan
46408;BME280;32110;45.724;21.276;2022-07-06T07:31:35;100440.63;;;20.72;nan
46408;BME280;32110;45.724;21.276;2022-07-06T07:34:00;100444.59;;;20.75;nan
46408;BME280;32110;45.724;21.276;2022-07-06T07:36:26;100452.78;;;20.84;nan
46408;BME280;32110;45.724;21.276;2022-07-06T07:38:51;100389.31;;;20.84;nan
46408;BME280;32110;45.724;21.276;2022-07-06T07:41:17;100454.25;;;20.90;nan
46408;BME280;32110;45.724;21.276;2022-07-06T07:43:43;100448.72;;;20.86;nan
46408;BME280;32110;45.724;21.276;2022-07-06T07:46:08;100461.03;;;21.01;nan
46408;BME280;32110;45.724;21.276;2022-07-06T07:48:34;100444.69;;;21.02;nan
46408;BME280;32110;45.724;21.276;2022-07-06T07:50:59;100498.72;;;21.04;nan
46408;BME280;32110;45.724;21.276;2022-07-06T07:53:25;100461.56;;;21.03;nan
46408;BME280;32110;45.724;21.276;2022-07-06T07:55:50;100475.94;;;21.07;nan
46408;BME280;32110;45.724;21.276;2022-07-06T07:58:16;100467.00;;;20.98;nan
46408;BME280;32110;45.724;21.276;2022-07-06T08:00:41;100514.94;;;20.94;nan
46408;BME280;32110;45.724;21.276;2022-07-06T08:03:06;100477.91;;;21.01;nan
46408;BME280;32110;45.724;21.276;2022-07-06T08:05:32;100480.28;;;21.03;nan
46408;BME280;32110;45.724;21.276;2022-07-06T08:07:57;100458.09;;;21.02;nan
46408;BME280;32110;45.724;21.276;2022-07-06T08:10:23;100525.03;;;21.02;nan
46408;BME280;32110;45.724;21.276;2022-07-06T08:12:48;100483.16;;;21.07;nan
46408;BME280;32110;45.724;21.276;2022-07-06T08:15:14;100490.63;;;21.10;nan
46408;BME280;32110;45.724;21.276;2022-07-06T08:17:39;100499.13;;;20.98;nan
46408;BME280;32110;45.724;21.276;2022-07-06T08:20:05;100511.63;;;21.02;nan
46408;BME280;32110;45.724;21.276;2022-07-06T08:22:31;100637.53;;;20.97;nan
46408;BME280;32110;45.724;21.276;2022-07-06T08:24:56;100497.75;;;21.00;nan
46408;BME280;32110;45.724;21.276;2022-07-06T08:27:23;100494.47;;;21.03;nan
46408;BME280;32110;45.724;21.276;2022-07-06T08:29:48;100479.41;;;21.08;nan
46408;BME280;32110;45.724;21.276;2022-07-06T08:32:14;100443.41;;;21.14;nan
46408;BME280;32110;45.724;21.276;2022-07-06T08:34:39;100507.56;;;21.05;nan
46408;BME280;32110;45.724;21.276;2022-07-06T08:37:05;100502.72;;;21.07;nan
46408;BME280;32110;45.724;21.276;2022-07-06T08:39:30;100496.41;;;21.17;nan
46408;BME280;32110;45.724;21.276;2022-07-06T08:41:58;100488.25;;;21.08;nan
46408;BME280;32110;45.724;21.276;2022-07-06T08:44:25;100486.09;;;21.24;nan
46408;BME280;32110;45.724;21.276;2022-07-06T08:46:51;100472.03;;;21.32;nan
46408;BME280;32110;45.724;21.276;2022-07-06T08:49:18;100561.72;;;21.35;nan
46408;BME280;32110;45.724;21.276;2022-07-06T08:51:45;100515.69;;;21.33;nan
46408;BME280;32110;45.724;21.276;2022-07-06T08:54:11;100459.66;;;21.36;nan
46408;BME280;32110;45.724;21.276;2022-07-06T08:56:38;100535.44;;;21.37;nan
46408;BME280;32110;45.724;21.276;2022-07-06T08:59:04;100546.94;;;21.37;nan
46408;BME280;32110;45.724;21.276;2022-07-06T09:01:35;100576.41;;;21.37;nan
46408;BME280;32110;45.724;21.276;2022-07-06T09:04:03;100515.84;;;21.41;nan
46408;BME280;32110;45.724;21.276;2022-07-06T09:06:30;100519.03;;;21.43;nan
46408;BME280;32110;45.724;21.276;2022-07-06T09:08:57;100524.88;;;21.45;nan
46408;BME280;32110;45.724;21.276;2022-07-06T09:11:23;100498.56;;;21.48;nan
46408;BME280;32110;45.724;21.276;2022-07-06T09:13:52;100482.50;;;21.48;nan
46408;BME280;32110;45.724;21.276;2022-07-06T09:16:25;100535.78;;;21.49;nan
46408;BME280;32110;45.724;21.276;2022-07-06T09:18:51;100533.63;;;21.51;nan
46408;BME280;32110;45.724;21.276;2022-07-06T09:21:28;100520.91;;;21.57;nan
46408;BME280;32110;45.724;21.276;2022-07-06T09:23:57;100477.06;;;21.53;nan
46408;BME280;32110;45.724;21.276;2022-07-06T09:26:23;100534.13;;;21.53;nan
46408;BME280;32110;45.724;21.276;2022-07-06T09:28:49;100559.31;;;21.52;nan
46408;BME280;32110;45.724;21.276;2022-07-06T09:31:15;100509.13;;;21.58;nan
46408;BME280;32110;45.724;21.276;2022-07-06T09:33:53;100527.50;;;21.64;nan
46408;BME280;32110;45.724;21.276;2022-07-06T09:39:27;100538.50;;;21.63;nan
46408;BME280;32110;45.724;21.276;2022-07-06T09:41:54;100539.97;;;21.69;nan
46408;BME280;32110;45.724;21.276;2022-07-06T09:46:54;100535.63;;;21.73;nan
46408;BME280;32110;45.724;21.276;2022-07-06T09:49:21;100534.25;;;21.76;nan
46408;BME280;32110;45.724;21.276;2022-07-06T09:51:48;100539.09;;;21.74;nan
46408;BME280;32110;45.724;21.276;2022-07-06T09:54:15;100539.59;;;21.76;nan
46408;BME280;32110;45.724;21.276;2022-07-06T09:56:42;100466.16;;;21.77;nan
46408;BME280;32110;45.724;21.276;2022-07-06T09:59:09;100521.75;;;21.85;nan
46408;BME280;32110;45.724;21.276;2022-07-06T10:01:39;100490.19;;;21.82;nan
46408;BME280;32110;45.724;21.276;2022-07-06T10:04:06;100543.41;;;21.88;nan
46408;BME280;32110;45.724;21.276;2022-07-06T10:06:32;100463.75;;;21.89;nan
46408;BME280;32110;45.724;21.276;2022-07-06T10:08:58;100521.97;;;21.88;nan
46408;BME280;32110;45.724;21.276;2022-07-06T10:11:24;100533.84;;;21.82;nan
46408;BME280;32110;45.724;21.276;2022-07-06T10:13:54;100534.03;;;21.86;nan
46408;BME280;32110;45.724;21.276;2022-07-06T10:16:22;100539.63;;;21.90;nan
46408;BME280;32110;45.724;21.276;2022-07-06T10:18:48;100530.09;;;21.97;nan
46408;BME280;32110;45.724;21.276;2022-07-06T10:21:16;100526.22;;;22.03;nan
46408;BME280;32110;45.724;21.276;2022-07-06T10:23:43;100522.94;;;22.06;nan
46408;BME280;32110;45.724;21.276;2022-07-06T10:26:09;100529.78;;;22.13;nan
46408;BME280;32110;45.724;21.276;2022-07-06T10:28:35;100535.16;;;22.13;nan
46408;BME280;32110;45.724;21.276;2022-07-06T10:31:01;100530.78;;;22.03;nan
46408;BME280;32110;45.724;21.276;2022-07-06T10:33:27;100537.44;;;22.05;nan
46408;BME280;32110;45.724;21.276;2022-07-06T10:35:53;100578.97;;;22.08;nan
46408;BME280;32110;45.724;21.276;2022-07-06T10:38:30;100501.50;;;22.20;nan
46408;BME280;32110;45.724;21.276;2022-07-06T10:41:07;100527.81;;;22.32;nan
46408;BME280;32110;45.724;21.276;2022-07-06T10:43:38;100543.81;;;22.23;nan
46408;BME280;32110;45.724;21.276;2022-07-06T10:46:27;100546.38;;;22.28;nan
46408;BME280;32110;45.724;21.276;2022-07-06T10:48:54;100552.38;;;22.25;nan
46408;BME280;32110;45.724;21.276;2022-07-06T10:51:29;100541.81;;;22.29;nan
46408;BME280;32110;45.724;21.276;2022-07-06T10:54:01;100519.06;;;22.26;nan
46408;BME280;32110;45.724;21.276;2022-07-06T10:56:49;100540.50;;;22.40;nan
46408;BME280;32110;45.724;21.276;2022-07-06T10:59:18;100525.31;;;22.36;nan
46408;BME280;32110;45.724;21.276;2022-07-06T11:02:12;100523.22;;;22.46;nan
46408;BME280;32110;45.724;21.276;2022-07-06T11:04:42;100543.34;;;22.58;nan
46408;BME280;32110;45.724;21.276;2022-07-06T11:07:19;100590.28;;;22.60;nan
46408;BME280;32110;45.724;21.276;2022-07-06T11:10:02;100551.00;;;22.64;nan
46408;BME280;32110;45.724;21.276;2022-07-06T11:12:28;100533.50;;;22.67;nan
46408;BME280;32110;45.724;21.276;2022-07-06T11:14:53;100575.44;;;22.77;nan
46408;BME280;32110;45.724;21.276;2022-07-06T11:17:20;100594.00;;;22.87;nan
46408;BME280;32110;45.724;21.276;2022-07-06T11:20:09;100526.94;;;22.96;nan
46408;BME280;32110;45.724;21.276;2022-07-06T11:22:36;100544.06;;;23.00;nan
46408;BME280;32110;45.724;21.276;2022-07-06T11:25:03;100515.81;;;23.02;nan
46408;BME280;32110;45.724;21.276;2022-07-06T11:27:29;100531.75;;;22.99;nan
46408;BME280;32110;45.724;21.276;2022-07-06T11:29:55;100523.97;;;22.97;nan
46408;BME280;32110;45.724;21.276;2022-07-06T11:32:25;100569.09;;;23.09;nan
46408;BME280;32110;45.724;21.276;2022-07-06T11:34:51;100530.59;;;23.13;nan
46408;BME280;32110;45.724;21.276;2022-07-06T11:37:17;100534.69;;;23.11;nan
46408;BME280;32110;45.724;21.276;2022-07-06T11:39:44;100547.19;;;23.16;nan
46408;BME280;32110;45.724;21.276;2022-07-06T11:42:11;100521.28;;;23.20;nan
46408;BME280;32110;45.724;21.276;2022-07-06T11:44:38;100521.78;;;23.22;nan
46408;BME280;32110;45.724;21.276;2022-07-06T11:49:31;100544.31;;;23.34;nan
46408;BME280;32110;45.724;21.276;2022-07-06T11:51:56;100530.13;;;23.43;nan
46408;BME280;32110;45.724;21.276;2022-07-06T11:54:23;100526.81;;;23.46;nan
46408;BME280;32110;45.724;21.276;2022-07-06T11:59:20;100525.22;;;23.45;nan
46408;BME280;32110;45.724;21.276;2022-07-06T12:01:46;100483.38;;;23.52;nan
46408;BME280;32110;45.724;21.276;2022-07-06T12:04:12;100524.34;;;23.58;nan
46408;BME280;32110;45.724;21.276;2022-07-06T12:06:37;100525.44;;;23.57;nan
46408;BME280;32110;45.724;21.276;2022-07-06T12:09:03;100502.31;;;23.47;nan
46408;BME280;32110;45.724;21.276;2022-07-06T12:11:31;100488.75;;;23.52;nan
46408;BME280;32110;45.724;21.276;2022-07-06T12:14:00;100535.56;;;23.60;nan
46408;BME280;32110;45.724;21.276;2022-07-06T12:16:33;100532.16;;;23.68;nan
46408;BME280;32110;45.724;21.276;2022-07-06T12:18:59;100516.06;;;23.77;nan
46408;BME280;32110;45.724;21.276;2022-07-06T12:21:25;100492.66;;;23.77;nan
46408;BME280;32110;45.724;21.276;2022-07-06T12:23:52;100482.34;;;23.71;nan
46408;BME280;32110;45.724;21.276;2022-07-06T12:26:20;100456.53;;;23.70;nan
46408;BME280;32110;45.724;21.276;2022-07-06T12:28:59;100524.38;;;23.67;nan
46408;BME280;32110;45.724;21.276;2022-07-06T12:31:32;100528.19;;;23.66;nan
46408;BME280;32110;45.724;21.276;2022-07-06T12:33:58;100518.72;;;23.68;nan
46408;BME280;32110;45.724;21.276;2022-07-06T12:36:24;100530.41;;;23.72;nan
46408;BME280;32110;45.724;21.276;2022-07-06T12:38:49;100511.09;;;23.62;nan
46408;BME280;32110;45.724;21.276;2022-07-06T12:41:31;100502.88;;;23.67;nan
46408;BME280;32110;45.724;21.276;2022-07-06T12:44:06;100530.88;;;23.66;nan
46408;BME280;32110;45.724;21.276;2022-07-06T12:46:37;100532.81;;;23.74;nan
46408;BME280;32110;45.724;21.276;2022-07-06T12:49:11;100525.38;;;23.71;nan
46408;BME280;32110;45.724;21.276;2022-07-06T12:51:53;100516.03;;;23.68;nan
46408;BME280;32110;45.724;21.276;2022-07-06T12:54:20;100587.19;;;23.71;nan
46408;BME280;32110;45.724;21.276;2022-07-06T12:59:24;100495.94;;;23.66;nan
46408;BME280;32110;45.724;21.276;2022-07-06T13:01:50;100537.47;;;23.60;nan
46408;BME280;32110;45.724;21.276;2022-07-06T13:04:17;100562.88;;;23.53;nan
46408;BME280;32110;45.724;21.276;2022-07-06T13:06:42;100526.88;;;23.54;nan
46408;BME280;32110;45.724;21.276;2022-07-06T13:09:07;100511.22;;;23.56;nan
46408;BME280;32110;45.724;21.276;2022-07-06T13:11:33;100558.75;;;23.47;nan
46408;BME280;32110;45.724;21.276;2022-07-06T13:13:59;100566.47;;;23.40;nan
46408;BME280;32110;45.724;21.276;2022-07-06T13:16:24;100497.50;;;23.35;nan
46408;BME280;32110;45.724;21.276;2022-07-06T13:18:55;100532.31;;;23.41;nan
46408;BME280;32110;45.724;21.276;2022-07-06T13:21:21;100506.19;;;23.32;nan
46408;BME280;32110;45.724;21.276;2022-07-06T13:23:47;100517.25;;;23.31;nan
46408;BME280;32110;45.724;21.276;2022-07-06T13:26:13;100520.22;;;23.29;nan
46408;BME280;32110;45.724;21.276;2022-07-06T13:28:38;100571.03;;;23.17;nan
46408;BME280;32110;45.724;21.276;2022-07-06T13:31:04;100581.50;;;23.19;nan
46408;BME280;32110;45.724;21.276;2022-07-06T13:33:29;100532.47;;;23.13;nan
46408;BME280;32110;45.724;21.276;2022-07-06T13:35:55;100540.84;;;23.11;nan
46408;BME280;32110;45.724;21.276;2022-07-06T13:38:20;100537.16;;;23.07;nan
46408;BME280;32110;45.724;21.276;2022-07-06T13:40:45;100524.22;;;23.09;nan
46408;BME280;32110;45.724;21.276;2022-07-06T13:43:11;100521.25;;;23.11;nan
46408;BME280;32110;45.724;21.276;2022-07-06T13:45:36;100527.03;;;23.04;nan
46408;BME280;32110;45.724;21.276;2022-07-06T13:48:02;100521.41;;;23.14;nan
46408;BME280;32110;45.724;21.276;2022-07-06T13:50:28;100480.06;;;23.24;nan
46408;BME280;32110;45.724;21.276;2022-07-06T13:52:57;100497.16;;;23.28;nan
46408;BME280;32110;45.724;21.276;2022-07-06T13:55:23;100507.00;;;23.33;nan